sensor_id;sensor_type;location;lat;lon;timestamp;pressure;altitude;pressure_sealevel;temperature;humidity
46464;BME280;32161;48.148;-1.554;2022-11-06T00:01:19;100875.56;;;13.75;98.27
46464;BME280;32161;48.148;-1.554;2022-11-06T00:03:49;100872.44;;;13.66;98.30
46464;BME280;32161;48.148;-1.554;2022-11-06T00:06:19;100863.66;;;13.64;98.80
46464;BME280;32161;48.148;-1.554;2022-11-06T00:09:06;100860.50;;;13.56;99.80
46464;BME280;32161;48.148;-1.554;2022-11-06T00:11:34;100851.25;;;13.57;99.64
46464;BME280;32161;48.148;-1.554;2022-11-06T00:14:02;100849.09;;;13.59;99.51
46464;BME280;32161;48.148;-1.554;2022-11-06T00:16:30;100842.13;;;13.68;99.20
46464;BME280;32161;48.148;-1.554;2022-11-06T00:18:59;100852.78;;;13.53;100.00
46464;BME280;32161;48.148;-1.554;2022-11-06T00:21:30;100850.72;;;13.60;99.89
46464;BME280;32161;48.148;-1.554;2022-11-06T00:23:59;100843.81;;;13.69;99.67
46464;BME280;32161;48.148;-1.554;2022-11-06T00:26:29;100839.00;;;13.76;98.79
46464;BME280;32161;48.148;-1.554;2022-11-06T00:28:58;100839.81;;;13.77;99.35
46464;BME280;32161;48.148;-1.554;2022-11-06T00:31:28;100834.59;;;13.75;99.31
46464;BME280;32161;48.148;-1.554;2022-11-06T00:33:59;100829.06;;;13.70;99.58
46464;BME280;32161;48.148;-1.554;2022-11-06T00:36:29;100823.34;;;13.88;98.86
46464;BME280;32161;48.148;-1.554;2022-11-06T00:38:58;100818.53;;;13.79;99.29
46464;BME280;32161;48.148;-1.554;2022-11-06T00:41:26;100824.19;;;13.72;99.85
46464;BME280;32161;48.148;-1.554;2022-11-06T00:43:56;100815.41;;;13.70;99.77
46464;BME280;32161;48.148;-1.554;2022-11-06T00:46:25;100815.41;;;13.70;100.00
46464;BME280;32161;48.148;-1.554;2022-11-06T00:48:55;100805.56;;;13.69;100.00
46464;BME280;32161;48.148;-1.554;2022-11-06T00:51:26;100796.56;;;13.90;99.51
46464;BME280;32161;48.148;-1.554;2022-11-06T00:53:57;100784.06;;;13.95;98.82
46464;BME280;32161;48.148;-1.554;2022-11-06T00:56:26;100765.53;;;13.97;98.76
46464;BME280;32161;48.148;-1.554;2022-11-06T00:58:54;100775.31;;;13.92;99.03
46464;BME280;32161;48.148;-1.554;2022-11-06T01:01:24;100761.63;;;13.92;98.89
46464;BME280;32161;48.148;-1.554;2022-11-06T01:03:54;100760.94;;;13.80;99.36
46464;BME280;32161;48.148;-1.554;2022-11-06T01:06:25;100771.09;;;13.85;99.26
46464;BME280;32161;48.148;-1.554;2022-11-06T01:08:55;100763.66;;;13.80;99.47
46464;BME280;32161;48.148;-1.554;2022-11-06T01:11:26;100758.69;;;13.77;99.64
46464;BME280;32161;48.148;-1.554;2022-11-06T01:13:56;100750.72;;;13.76;99.19
46464;BME280;32161;48.148;-1.554;2022-11-06T01:16:25;100739.81;;;13.76;99.71
46464;BME280;32161;48.148;-1.554;2022-11-06T01:18:55;100749.06;;;13.75;99.93
46464;BME280;32161;48.148;-1.554;2022-11-06T01:21:27;100745.53;;;13.74;100.00
46464;BME280;32161;48.148;-1.554;2022-11-06T01:23:59;100738.63;;;13.88;99.49
46464;BME280;32161;48.148;-1.554;2022-11-06T01:26:28;100745.19;;;13.71;99.77
46464;BME280;32161;48.148;-1.554;2022-11-06T01:28:56;100750.50;;;13.77;100.00
46464;BME280;32161;48.148;-1.554;2022-11-06T01:31:28;100738.84;;;13.65;100.00
46464;BME280;32161;48.148;-1.554;2022-11-06T01:33:57;100733.81;;;13.96;99.51
46464;BME280;32161;48.148;-1.554;2022-11-06T01:36:26;100734.94;;;13.78;99.60
46464;BME280;32161;48.148;-1.554;2022-11-06T01:38:58;100732.78;;;13.63;100.00
46464;BME280;32161;48.148;-1.554;2022-11-06T01:41:28;100730.75;;;13.53;100.00
46464;BME280;32161;48.148;-1.554;2022-11-06T01:43:59;100733.06;;;13.61;100.00
46464;BME280;32161;48.148;-1.554;2022-11-06T01:46:29;100734.88;;;13.73;100.00
46464;BME280;32161;48.148;-1.554;2022-11-06T01:49:01;100737.75;;;13.66;100.00
46464;BME280;32161;48.148;-1.554;2022-11-06T01:51:33;100738.31;;;13.68;100.00
46464;BME280;32161;48.148;-1.554;2022-11-06T01:54:05;100736.19;;;13.70;100.00
46464;BME280;32161;48.148;-1.554;2022-11-06T01:56:34;100737.59;;;13.73;100.00
46464;BME280;32161;48.148;-1.554;2022-11-06T01:59:03;100739.19;;;13.68;100.00
46464;BME280;32161;48.148;-1.554;2022-11-06T02:01:32;100711.97;;;13.79;100.00
46464;BME280;32161;48.148;-1.554;2022-11-06T02:04:03;100708.50;;;13.83;100.00
46464;BME280;32161;48.148;-1.554;2022-11-06T02:06:32;100723.13;;;13.72;100.00
46464;BME280;32161;48.148;-1.554;2022-11-06T02:09:00;100709.69;;;13.71;100.00
46464;BME280;32161;48.148;-1.554;2022-11-06T02:11:29;100704.22;;;13.71;100.00
46464;BME280;32161;48.148;-1.554;2022-11-06T02:14:03;100709.91;;;13.86;100.00
46464;BME280;32161;48.148;-1.554;2022-11-06T02:16:40;100703.59;;;13.85;100.00
46464;BME280;32161;48.148;-1.554;2022-11-06T02:19:31;100692.84;;;13.79;100.00
46464;BME280;32161;48.148;-1.554;2022-11-06T02:22:20;100685.03;;;13.87;100.00
46464;BME280;32161;48.148;-1.554;2022-11-06T02:25:13;100670.88;;;13.68;100.00
46464;BME280;32161;48.148;-1.554;2022-11-06T02:27:47;100669.91;;;13.80;100.00
46464;BME280;32161;48.148;-1.554;2022-11-06T02:30:18;100667.19;;;13.80;100.00
46464;BME280;32161;48.148;-1.554;2022-11-06T02:32:51;100664.66;;;13.73;100.00
46464;BME280;32161;48.148;-1.554;2022-11-06T02:35:28;100666.03;;;13.54;100.00
46464;BME280;32161;48.148;-1.554;2022-11-06T02:38:00;100660.81;;;13.52;100.00
46464;BME280;32161;48.148;-1.554;2022-11-06T02:40:33;100650.31;;;13.61;100.00
46464;BME280;32161;48.148;-1.554;2022-11-06T02:43:07;100648.69;;;13.43;100.00
46464;BME280;32161;48.148;-1.554;2022-11-06T02:45:40;100639.72;;;13.48;100.00
46464;BME280;32161;48.148;-1.554;2022-11-06T02:48:11;100648.13;;;13.63;100.00
46464;BME280;32161;48.148;-1.554;2022-11-06T02:50:43;100648.44;;;13.66;100.00
46464;BME280;32161;48.148;-1.554;2022-11-06T02:53:14;100647.13;;;13.69;100.00
46464;BME280;32161;48.148;-1.554;2022-11-06T02:55:47;100626.03;;;13.64;100.00
46464;BME280;32161;48.148;-1.554;2022-11-06T02:58:22;100637.59;;;13.50;100.00
46464;BME280;32161;48.148;-1.554;2022-11-06T03:00:56;100624.78;;;13.72;100.00
46464;BME280;32161;48.148;-1.554;2022-11-06T03:03:28;100627.75;;;13.71;100.00
46464;BME280;32161;48.148;-1.554;2022-11-06T03:06:00;100622.28;;;13.71;100.00
46464;BME280;32161;48.148;-1.554;2022-11-06T03:08:35;100625.19;;;13.64;100.00
46464;BME280;32161;48.148;-1.554;2022-11-06T03:11:12;100612.56;;;13.58;100.00
46464;BME280;32161;48.148;-1.554;2022-11-06T03:13:51;100608.44;;;13.55;100.00
46464;BME280;32161;48.148;-1.554;2022-11-06T03:16:31;100604.28;;;13.53;100.00
46464;BME280;32161;48.148;-1.554;2022-11-06T03:19:05;100599.66;;;13.75;100.00
46464;BME280;32161;48.148;-1.554;2022-11-06T03:21:43;100584.03;;;13.71;100.00
46464;BME280;32161;48.148;-1.554;2022-11-06T03:24:17;100587.25;;;13.67;100.00
46464;BME280;32161;48.148;-1.554;2022-11-06T03:26:50;100577.03;;;13.80;100.00
46464;BME280;32161;48.148;-1.554;2022-11-06T03:29:26;100578.19;;;13.62;100.00
46464;BME280;32161;48.148;-1.554;2022-11-06T03:32:03;100578.16;;;13.57;100.00
46464;BME280;32161;48.148;-1.554;2022-11-06T03:34:40;100570.66;;;13.69;100.00
46464;BME280;32161;48.148;-1.554;2022-11-06T03:37:14;100572.78;;;13.67;100.00
46464;BME280;32161;48.148;-1.554;2022-11-06T03:39:49;100567.31;;;13.67;100.00
46464;BME280;32161;48.148;-1.554;2022-11-06T03:42:23;100565.50;;;13.73;100.00
46464;BME280;32161;48.148;-1.554;2022-11-06T03:44:57;100566.31;;;13.73;100.00
46464;BME280;32161;48.148;-1.554;2022-11-06T03:47:28;100562.44;;;13.69;100.00
46464;BME280;32161;48.148;-1.554;2022-11-06T03:50:03;100550.56;;;13.80;100.00
46464;BME280;32161;48.148;-1.554;2022-11-06T03:52:37;100541.78;;;13.78;100.00
46464;BME280;32161;48.148;-1.554;2022-11-06T03:55:11;100540.66;;;13.74;100.00
46464;BME280;32161;48.148;-1.554;2022-11-06T03:57:42;100537.63;;;13.76;100.00
46464;BME280;32161;48.148;-1.554;2022-11-06T04:00:15;100533.94;;;13.87;100.00
46464;BME280;32161;48.148;-1.554;2022-11-06T04:02:50;100538.84;;;13.85;100.00
46464;BME280;32161;48.148;-1.554;2022-11-06T04:05:34;100540.84;;;13.95;100.00
46464;BME280;32161;48.148;-1.554;2022-11-06T04:08:03;100539.88;;;13.79;100.00
46464;BME280;32161;48.148;-1.554;2022-11-06T04:10:58;100533.63;;;13.83;100.00
46464;BME280;32161;48.148;-1.554;2022-11-06T04:13:46;100529.53;;;13.81;100.00
46464;BME280;32161;48.148;-1.554;2022-11-06T04:16:28;100525.44;;;13.83;100.00
46464;BME280;32161;48.148;-1.554;2022-11-06T04:18:57;100516.38;;;13.78;100.00
46464;BME280;32161;48.148;-1.554;2022-11-06T04:21:38;100513.69;;;13.83;100.00
46464;BME280;32161;48.148;-1.554;2022-11-06T04:24:22;100514.25;;;13.85;100.00
46464;BME280;32161;48.148;-1.554;2022-11-06T04:27:27;100506.13;;;13.90;100.00
46464;BME280;32161;48.148;-1.554;2022-11-06T04:30:06;100502.13;;;13.76;100.00
46464;BME280;32161;48.148;-1.554;2022-11-06T04:33:05;100496.63;;;13.98;100.00
46464;BME280;32161;48.148;-1.554;2022-11-06T04:35:47;100486.06;;;13.79;100.00
46464;BME280;32161;48.148;-1.554;2022-11-06T04:38:26;100493.75;;;13.82;100.00
46464;BME280;32161;48.148;-1.554;2022-11-06T04:41:04;100489.72;;;13.90;100.00
46464;BME280;32161;48.148;-1.554;2022-11-06T04:43:42;100475.03;;;13.96;100.00
46464;BME280;32161;48.148;-1.554;2022-11-06T04:46:18;100474.13;;;13.90;100.00
46464;BME280;32161;48.148;-1.554;2022-11-06T04:48:49;100464.75;;;13.76;100.00
46464;BME280;32161;48.148;-1.554;2022-11-06T04:51:22;100464.78;;;13.81;100.00
46464;BME280;32161;48.148;-1.554;2022-11-06T04:53:53;100465.94;;;13.90;100.00
46464;BME280;32161;48.148;-1.554;2022-11-06T04:56:26;100454.84;;;14.02;100.00
46464;BME280;32161;48.148;-1.554;2022-11-06T04:58:55;100444.66;;;13.92;100.00
46464;BME280;32161;48.148;-1.554;2022-11-06T05:01:23;100437.75;;;13.85;100.00
46464;BME280;32161;48.148;-1.554;2022-11-06T05:03:52;100436.41;;;13.87;100.00
46464;BME280;32161;48.148;-1.554;2022-11-06T05:06:20;100420.69;;;14.00;100.00
46464;BME280;32161;48.148;-1.554;2022-11-06T05:08:47;100431.66;;;14.05;100.00
46464;BME280;32161;48.148;-1.554;2022-11-06T05:11:15;100420.69;;;14.00;100.00
46464;BME280;32161;48.148;-1.554;2022-11-06T05:13:42;100413.53;;;13.99;100.00
46464;BME280;32161;48.148;-1.554;2022-11-06T05:16:10;100417.13;;;13.99;100.00
46464;BME280;32161;48.148;-1.554;2022-11-06T05:18:38;100411.41;;;14.06;100.00
46464;BME280;32161;48.148;-1.554;2022-11-06T05:21:07;100406.41;;;13.92;100.00
46464;BME280;32161;48.148;-1.554;2022-11-06T05:23:51;100400.97;;;13.98;100.00
46464;BME280;32161;48.148;-1.554;2022-11-06T05:26:19;100398.56;;;14.01;100.00
46464;BME280;32161;48.148;-1.554;2022-11-06T05:28:47;100400.47;;;14.01;100.00
46464;BME280;32161;48.148;-1.554;2022-11-06T05:31:14;100417.13;;;13.99;100.00
46464;BME280;32161;48.148;-1.554;2022-11-06T05:33:42;100413.00;;;13.97;100.00
46464;BME280;32161;48.148;-1.554;2022-11-06T05:36:11;100407.56;;;14.02;100.00
46464;BME280;32161;48.148;-1.554;2022-11-06T05:38:39;100409.78;;;14.05;100.00
46464;BME280;32161;48.148;-1.554;2022-11-06T05:41:06;100401.28;;;14.01;100.00
46464;BME280;32161;48.148;-1.554;2022-11-06T05:43:34;100403.81;;;14.08;100.00
46464;BME280;32161;48.148;-1.554;2022-11-06T05:46:01;100394.59;;;14.19;100.00
46464;BME280;32161;48.148;-1.554;2022-11-06T05:48:29;100388.91;;;13.88;100.00
46464;BME280;32161;48.148;-1.554;2022-11-06T05:51:00;100398.16;;;13.87;100.00
46464;BME280;32161;48.148;-1.554;2022-11-06T05:53:31;100377.97;;;13.88;100.00
46464;BME280;32161;48.148;-1.554;2022-11-06T05:55:59;100374.66;;;13.86;100.00
46464;BME280;32161;48.148;-1.554;2022-11-06T05:58:27;100366.44;;;13.81;100.00
46464;BME280;32161;48.148;-1.554;2022-11-06T06:00:56;100355.22;;;13.83;100.00
46464;BME280;32161;48.148;-1.554;2022-11-06T06:03:25;100361.91;;;13.97;100.00
46464;BME280;32161;48.148;-1.554;2022-11-06T06:05:52;100358.34;;;13.97;100.00
46464;BME280;32161;48.148;-1.554;2022-11-06T06:08:20;100345.06;;;13.73;100.00
46464;BME280;32161;48.148;-1.554;2022-11-06T06:10:49;100340.69;;;13.72;100.00
46464;BME280;32161;48.148;-1.554;2022-11-06T06:13:17;100337.06;;;13.66;100.00
46464;BME280;32161;48.148;-1.554;2022-11-06T06:15:44;100336.88;;;13.73;100.00
46464;BME280;32161;48.148;-1.554;2022-11-06T06:18:12;100336.28;;;13.71;100.00
46464;BME280;32161;48.148;-1.554;2022-11-06T06:20:40;100336.16;;;13.88;100.00
46464;BME280;32161;48.148;-1.554;2022-11-06T06:23:09;100336.09;;;13.83;100.00
46464;BME280;32161;48.148;-1.554;2022-11-06T06:25:36;100347.53;;;13.80;100.00
46464;BME280;32161;48.148;-1.554;2022-11-06T06:28:05;100339.09;;;13.81;100.00
46464;BME280;32161;48.148;-1.554;2022-11-06T06:30:33;100336.94;;;13.83;100.00
46464;BME280;32161;48.148;-1.554;2022-11-06T06:33:03;100329.31;;;13.85;100.00
46464;BME280;32161;48.148;-1.554;2022-11-06T06:35:32;100331.75;;;13.87;100.00
46464;BME280;32161;48.148;-1.554;2022-11-06T06:37:59;100335.56;;;13.81;100.00
46464;BME280;32161;48.148;-1.554;2022-11-06T06:40:27;100331.31;;;14.00;100.00
46464;BME280;32161;48.148;-1.554;2022-11-06T06:42:55;100323.63;;;13.92;100.00
46464;BME280;32161;48.148;-1.554;2022-11-06T06:45:25;100316.75;;;13.84;100.00
46464;BME280;32161;48.148;-1.554;2022-11-06T06:47:52;100317.50;;;13.80;100.00
46464;BME280;32161;48.148;-1.554;2022-11-06T06:50:20;100314.75;;;13.75;100.00
46464;BME280;32161;48.148;-1.554;2022-11-06T06:52:47;100298.63;;;13.73;100.00
46464;BME280;32161;48.148;-1.554;2022-11-06T06:55:15;100292.75;;;13.54;100.00
46464;BME280;32161;48.148;-1.554;2022-11-06T06:57:43;100294.69;;;13.59;100.00
46464;BME280;32161;48.148;-1.554;2022-11-06T07:00:11;100280.63;;;13.77;100.00
46464;BME280;32161;48.148;-1.554;2022-11-06T07:02:40;100283.28;;;13.67;100.00
46464;BME280;32161;48.148;-1.554;2022-11-06T07:05:08;100288.38;;;13.53;100.00
46464;BME280;32161;48.148;-1.554;2022-11-06T07:07:36;100279.94;;;13.60;100.00
46464;BME280;32161;48.148;-1.554;2022-11-06T07:10:05;100281.16;;;13.74;100.00
46464;BME280;32161;48.148;-1.554;2022-11-06T07:12:32;100277.88;;;13.77;100.00
46464;BME280;32161;48.148;-1.554;2022-11-06T07:15:00;100269.09;;;13.70;100.00
46464;BME280;32161;48.148;-1.554;2022-11-06T07:17:27;100264.66;;;13.59;100.00
46464;BME280;32161;48.148;-1.554;2022-11-06T07:19:56;100275.75;;;13.84;100.00
46464;BME280;32161;48.148;-1.554;2022-11-06T07:22:26;100264.66;;;13.59;100.00
46464;BME280;32161;48.148;-1.554;2022-11-06T07:24:54;100273.75;;;13.70;100.00
46464;BME280;32161;48.148;-1.554;2022-11-06T07:27:21;100285.81;;;13.79;100.00
46464;BME280;32161;48.148;-1.554;2022-11-06T07:29:49;100274.88;;;13.79;100.00
46464;BME280;32161;48.148;-1.554;2022-11-06T07:32:16;100271.84;;;13.75;100.00
46464;BME280;32161;48.148;-1.554;2022-11-06T07:34:44;100275.47;;;13.86;100.00
46464;BME280;32161;48.148;-1.554;2022-11-06T07:37:13;100274.38;;;13.82;100.00
46464;BME280;32161;48.148;-1.554;2022-11-06T07:39:41;100282.22;;;13.73;100.00
46464;BME280;32161;48.148;-1.554;2022-11-06T07:42:08;100282.78;;;13.75;100.00
46464;BME280;32161;48.148;-1.554;2022-11-06T07:44:36;100282.28;;;13.83;100.00
46464;BME280;32161;48.148;-1.554;2022-11-06T07:47:03;100280.34;;;13.79;100.00
46464;BME280;32161;48.148;-1.554;2022-11-06T07:49:31;100280.34;;;13.79;100.00
46464;BME280;32161;48.148;-1.554;2022-11-06T07:51:59;100275.06;;;13.62;100.00
46464;BME280;32161;48.148;-1.554;2022-11-06T07:54:28;100272.88;;;13.64;100.00
46464;BME280;32161;48.148;-1.554;2022-11-06T07:56:56;100282.22;;;13.73;100.00
46464;BME280;32161;48.148;-1.554;2022-11-06T07:59:23;100288.59;;;13.84;100.00
46464;BME280;32161;48.148;-1.554;2022-11-06T08:01:51;100283.91;;;13.79;100.00
46464;BME280;32161;48.148;-1.554;2022-11-06T08:04:18;100283.78;;;14.01;100.00
46464;BME280;32161;48.148;-1.554;2022-11-06T08:06:46;100278.94;;;13.71;100.00
46464;BME280;32161;48.148;-1.554;2022-11-06T08:09:14;100283.59;;;13.76;100.00
46464;BME280;32161;48.148;-1.554;2022-11-06T08:11:43;100275.25;;;13.55;100.00
46464;BME280;32161;48.148;-1.554;2022-11-06T08:14:10;100283.03;;;13.68;100.00
46464;BME280;32161;48.148;-1.554;2022-11-06T08:16:38;100272.47;;;13.87;100.00
46464;BME280;32161;48.148;-1.554;2022-11-06T08:19:06;100270.28;;;13.84;100.00
46464;BME280;32161;48.148;-1.554;2022-11-06T08:21:33;100263.66;;;13.75;100.00
46464;BME280;32161;48.148;-1.554;2022-11-06T08:24:01;100269.28;;;14.01;100.00
46464;BME280;32161;48.148;-1.554;2022-11-06T08:26:29;100265.97;;;13.93;100.00
46464;BME280;32161;48.148;-1.554;2022-11-06T08:28:59;100261.06;;;13.96;100.00
46464;BME280;32161;48.148;-1.554;2022-11-06T08:31:27;100264.84;;;13.89;100.00
46464;BME280;32161;48.148;-1.554;2022-11-06T08:33:56;100263.91;;;14.16;100.00
46464;BME280;32161;48.148;-1.554;2022-11-06T08:36:23;100254.50;;;13.97;100.00
46464;BME280;32161;48.148;-1.554;2022-11-06T08:38:51;100256.34;;;13.81;100.00
46464;BME280;32161;48.148;-1.554;2022-11-06T08:41:19;100253.28;;;13.72;100.00
46464;BME280;32161;48.148;-1.554;2022-11-06T08:43:50;100238.88;;;13.87;100.00
46464;BME280;32161;48.148;-1.554;2022-11-06T08:46:19;100239.47;;;13.94;100.00
46464;BME280;32161;48.148;-1.554;2022-11-06T08:48:47;100254.34;;;13.71;100.00
46464;BME280;32161;48.148;-1.554;2022-11-06T08:51:15;100248.28;;;13.64;100.00
46464;BME280;32161;48.148;-1.554;2022-11-06T08:53:42;100246.16;;;13.71;100.00
46464;BME280;32161;48.148;-1.554;2022-11-06T08:56:10;100245.13;;;13.77;100.00
46464;BME280;32161;48.148;-1.554;2022-11-06T08:58:38;100253.84;;;13.79;100.00
46464;BME280;32161;48.148;-1.554;2022-11-06T09:01:06;100241.78;;;13.70;100.00
46464;BME280;32161;48.148;-1.554;2022-11-06T09:03:34;100243.69;;;13.64;100.00
46464;BME280;32161;48.148;-1.554;2022-11-06T09:06:04;100232.53;;;13.76;100.00
46464;BME280;32161;48.148;-1.554;2022-11-06T09:08:33;100235.00;;;13.78;100.00
46464;BME280;32161;48.148;-1.554;2022-11-06T09:11:05;100246.75;;;13.78;100.00
46464;BME280;32161;48.148;-1.554;2022-11-06T09:13:33;100255.47;;;13.75;100.00
46464;BME280;32161;48.148;-1.554;2022-11-06T09:16:01;100257.38;;;13.75;100.00
46464;BME280;32161;48.148;-1.554;2022-11-06T09:18:31;100256.47;;;13.64;100.00
46464;BME280;32161;48.148;-1.554;2022-11-06T09:21:00;100252.22;;;13.78;100.00
46464;BME280;32161;48.148;-1.554;2022-11-06T09:23:28;100261.50;;;13.77;100.00
46464;BME280;32161;48.148;-1.554;2022-11-06T09:25:56;100247.34;;;13.85;100.00
46464;BME280;32161;48.148;-1.554;2022-11-06T09:28:24;100250.38;;;13.94;100.00
46464;BME280;32161;48.148;-1.554;2022-11-06T09:30:51;100243.06;;;14.05;100.00
46464;BME280;32161;48.148;-1.554;2022-11-06T09:33:20;100240.66;;;14.13;100.00
46464;BME280;32161;48.148;-1.554;2022-11-06T09:35:48;100245.59;;;14.22;100.00
46464;BME280;32161;48.148;-1.554;2022-11-06T09:38:16;100244.28;;;14.29;100.00
46464;BME280;32161;48.148;-1.554;2022-11-06T09:40:48;100236.41;;;14.43;100.00
46464;BME280;32161;48.148;-1.554;2022-11-06T09:43:26;100238.31;;;14.37;100.00
46464;BME280;32161;48.148;-1.554;2022-11-06T09:46:05;100229.50;;;14.25;100.00
46464;BME280;32161;48.148;-1.554;2022-11-06T09:48:37;100233.84;;;14.21;100.00
46464;BME280;32161;48.148;-1.554;2022-11-06T09:51:16;100227.84;;;14.19;100.00
46464;BME280;32161;48.148;-1.554;2022-11-06T09:53:53;100218.47;;;14.05;100.00
46464;BME280;32161;48.148;-1.554;2022-11-06T09:56:23;100208.38;;;14.05;100.00
46464;BME280;32161;48.148;-1.554;2022-11-06T09:58:55;100203.78;;;14.16;100.00
46464;BME280;32161;48.148;-1.554;2022-11-06T10:01:33;100199.38;;;14.10;100.00
46464;BME280;32161;48.148;-1.554;2022-11-06T10:04:03;100192.56;;;14.12;100.00
46464;BME280;32161;48.148;-1.554;2022-11-06T10:06:32;100193.34;;;14.08;100.00
46464;BME280;32161;48.148;-1.554;2022-11-06T10:09:05;100195.00;;;14.14;100.00
46464;BME280;32161;48.148;-1.554;2022-11-06T10:11:53;100202.66;;;14.07;100.00
46464;BME280;32161;48.148;-1.554;2022-11-06T10:14:45;100202.09;;;14.05;100.00
46464;BME280;32161;48.148;-1.554;2022-11-06T10:17:27;100209.44;;;13.99;100.00
46464;BME280;32161;48.148;-1.554;2022-11-06T10:20:08;100207.31;;;14.11;100.00
46464;BME280;32161;48.148;-1.554;2022-11-06T10:22:41;100206.50;;;14.11;100.00
46464;BME280;32161;48.148;-1.554;2022-11-06T10:25:21;100213.66;;;14.32;100.00
46464;BME280;32161;48.148;-1.554;2022-11-06T10:28:00;100200.81;;;14.28;100.00
46464;BME280;32161;48.148;-1.554;2022-11-06T10:30:36;100202.19;;;14.30;100.00
46464;BME280;32161;48.148;-1.554;2022-11-06T10:33:25;100230.66;;;14.34;100.00
46464;BME280;32161;48.148;-1.554;2022-11-06T10:36:01;100225.47;;;14.43;100.00
46464;BME280;32161;48.148;-1.554;2022-11-06T10:38:34;100228.53;;;14.52;100.00
46464;BME280;32161;48.148;-1.554;2022-11-06T10:41:04;100228.44;;;14.36;100.00
46464;BME280;32161;48.148;-1.554;2022-11-06T10:43:33;100229.00;;;14.38;100.00
46464;BME280;32161;48.148;-1.554;2022-11-06T10:46:11;100231.47;;;14.40;100.00
46464;BME280;32161;48.148;-1.554;2022-11-06T10:48:47;100222.25;;;14.51;100.00
46464;BME280;32161;48.148;-1.554;2022-11-06T10:51:54;100221.19;;;14.68;100.00
46464;BME280;32161;48.148;-1.554;2022-11-06T10:54:37;100225.31;;;14.70;100.00
46464;BME280;32161;48.148;-1.554;2022-11-06T10:57:26;100209.47;;;14.93;100.00
46464;BME280;32161;48.148;-1.554;2022-11-06T10:59:55;100224.50;;;14.80;100.00
46464;BME280;32161;48.148;-1.554;2022-11-06T11:02:27;100204.81;;;14.98;100.00
46464;BME280;32161;48.148;-1.554;2022-11-06T11:04:56;100207.28;;;14.84;100.00
46464;BME280;32161;48.148;-1.554;2022-11-06T11:07:24;100214.34;;;14.75;100.00
46464;BME280;32161;48.148;-1.554;2022-11-06T11:09:53;100201.78;;;14.95;100.00
46464;BME280;32161;48.148;-1.554;2022-11-06T11:12:26;100197.69;;;15.02;100.00
46464;BME280;32161;48.148;-1.554;2022-11-06T11:15:13;100191.69;;;15.00;100.00
46464;BME280;32161;48.148;-1.554;2022-11-06T11:17:42;100202.34;;;14.97;100.00
46464;BME280;32161;48.148;-1.554;2022-11-06T11:20:32;100201.25;;;15.13;100.00
46464;BME280;32161;48.148;-1.554;2022-11-06T11:23:14;100200.19;;;15.19;100.00
46464;BME280;32161;48.148;-1.554;2022-11-06T11:25:44;100196.06;;;15.22;100.00
46464;BME280;32161;48.148;-1.554;2022-11-06T11:28:29;100199.06;;;15.30;100.00
46464;BME280;32161;48.148;-1.554;2022-11-06T11:31:06;100197.16;;;15.31;100.00
46464;BME280;32161;48.148;-1.554;2022-11-06T11:33:35;100197.69;;;15.53;100.00
46464;BME280;32161;48.148;-1.554;2022-11-06T11:36:05;100195.19;;;15.52;100.00
46464;BME280;32161;48.148;-1.554;2022-11-06T11:38:35;100179.88;;;15.66;100.00
46464;BME280;32161;48.148;-1.554;2022-11-06T11:41:11;100191.38;;;15.68;100.00
46464;BME280;32161;48.148;-1.554;2022-11-06T11:43:41;100189.44;;;15.58;100.00
46464;BME280;32161;48.148;-1.554;2022-11-06T11:46:18;100185.91;;;15.48;100.00
46464;BME280;32161;48.148;-1.554;2022-11-06T11:48:49;100182.31;;;15.62;99.25
46464;BME280;32161;48.148;-1.554;2022-11-06T11:51:29;100176.84;;;15.52;98.35
46464;BME280;32161;48.148;-1.554;2022-11-06T11:54:01;100181.25;;;15.43;99.05
46464;BME280;32161;48.148;-1.554;2022-11-06T11:56:30;100186.44;;;15.45;99.33
46464;BME280;32161;48.148;-1.554;2022-11-06T11:59:01;100177.69;;;15.53;98.66
46464;BME280;32161;48.148;-1.554;2022-11-06T12:01:39;100174.94;;;15.48;99.55
46464;BME280;32161;48.148;-1.554;2022-11-06T12:04:20;100177.13;;;15.51;99.58
46464;BME280;32161;48.148;-1.554;2022-11-06T12:06:50;100177.41;;;15.70;98.99
46464;BME280;32161;48.148;-1.554;2022-11-06T12:09:20;100185.88;;;15.63;98.91
46464;BME280;32161;48.148;-1.554;2022-11-06T12:11:48;100175.50;;;15.65;98.79
46464;BME280;32161;48.148;-1.554;2022-11-06T12:14:37;100181.22;;;15.63;98.37
46464;BME280;32161;48.148;-1.554;2022-11-06T12:17:14;100167.81;;;15.52;98.51
46464;BME280;32161;48.148;-1.554;2022-11-06T12:19:49;100170.00;;;15.45;99.12
46464;BME280;32161;48.148;-1.554;2022-11-06T12:22:24;100167.84;;;15.42;99.62
46464;BME280;32161;48.148;-1.554;2022-11-06T12:24:57;100166.19;;;15.46;99.71
46464;BME280;32161;48.148;-1.554;2022-11-06T12:27:28;100162.06;;;15.48;99.71
46464;BME280;32161;48.148;-1.554;2022-11-06T12:30:09;100157.69;;;15.57;100.00
46464;BME280;32161;48.148;-1.554;2022-11-06T12:32:57;100150.53;;;15.61;100.00
46464;BME280;32161;48.148;-1.554;2022-11-06T12:35:30;100154.13;;;15.52;100.00
46464;BME280;32161;48.148;-1.554;2022-11-06T12:38:11;100160.09;;;15.64;100.00
46464;BME280;32161;48.148;-1.554;2022-11-06T12:40:47;100159.28;;;15.63;99.71
46464;BME280;32161;48.148;-1.554;2022-11-06T12:43:21;100155.22;;;15.66;98.39
46464;BME280;32161;48.148;-1.554;2022-11-06T12:46:02;100149.69;;;15.81;97.61
46464;BME280;32161;48.148;-1.554;2022-11-06T12:48:48;100148.88;;;15.81;97.66
46464;BME280;32161;48.148;-1.554;2022-11-06T12:51:26;100145.00;;;15.92;96.22
46464;BME280;32161;48.148;-1.554;2022-11-06T12:54:16;100154.00;;;15.98;96.31
46464;BME280;32161;48.148;-1.554;2022-11-06T12:57:01;100132.41;;;15.76;95.67
46464;BME280;32161;48.148;-1.554;2022-11-06T12:59:44;100137.03;;;15.96;96.32